Time;durP1;ratioP1;P1;durP2;ratioP2;P2;SDS_P1;SDS_P2;PMS_P1;PMS_P2;Temp;Humidity;BMP_temperature;BMP_pressure;BME280_temperature;BME280_humidity;BME280_pressure;Samples;Min_cycle;Max_cycle;Signal;HPM_P1;HPM_P2
2021/12/19 00:02:01;;;;;;;6.38;3.83;;;5.80;99.90;;;;;;2609451;54;20019;31
2021/12/19 00:04:43;;;;;;;6.47;4.32;;;5.80;99.90;;;;;;2611010;54;21115;31
2021/12/19 00:10:08;;;;;;;5.47;3.63;;;5.70;99.90;;;;;;2604634;54;20024;-77
2021/12/19 00:12:39;;;;;;;6.65;4.60;;;5.80;99.90;;;;;;2703052;39;20299;31
2021/12/19 00:15:16;;;;;;;5.78;3.88;;;5.80;99.90;;;;;;2639784;31;20512;31
2021/12/19 00:17:50;;;;;;;6.32;3.80;;;5.80;99.90;;;;;;2603625;54;20026;31
2021/12/19 00:20:25;;;;;;;6.05;3.30;;;5.80;99.90;;;;;;2611067;54;20868;31
2021/12/19 00:23:19;;;;;;;6.15;3.70;;;5.80;99.90;;;;;;2612721;54;20057;31
2021/12/19 00:25:51;;;;;;;4.82;3.33;;;5.80;99.90;;;;;;2608577;54;20033;31
2021/12/19 00:28:26;;;;;;;4.60;3.15;;;5.80;99.90;;;;;;2611866;54;20908;31
2021/12/19 00:31:04;;;;;;;4.57;3.43;;;5.80;99.90;;;;;;2610521;54;20030;31
2021/12/19 00:33:41;;;;;;;8.10;3.67;;;5.90;99.90;;;;;;2604970;54;20085;-71
2021/12/19 00:36:15;;;;;;;4.38;3.00;;;5.90;99.90;;;;;;2610600;54;20026;31
2021/12/19 00:38:50;;;;;;;7.65;3.90;;;5.90;99.90;;;;;;2608411;54;20026;31
2021/12/19 00:41:25;;;;;;;4.68;3.30;;;5.80;99.90;;;;;;2603506;54;20023;31
2021/12/19 00:44:07;;;;;;;5.00;2.78;;;5.90;99.90;;;;;;2606595;54;20837;31
2021/12/19 00:46:49;;;;;;;4.53;3.50;;;5.90;99.90;;;;;;2612219;39;20907;31
2021/12/19 00:49:22;;;;;;;5.87;3.93;;;5.90;99.90;;;;;;2607847;54;20023;31
2021/12/19 00:51:55;;;;;;;5.60;3.90;;;5.90;99.90;;;;;;2603601;46;20812;31
2021/12/19 00:54:30;;;;;;;7.15;3.95;;;5.90;99.90;;;;;;2604097;46;20026;31
2021/12/19 00:57:02;;;;;;;5.25;3.45;;;5.90;99.90;;;;;;2603541;54;20019;31
2021/12/19 00:59:34;;;;;;;9.90;3.55;;;5.90;99.90;;;;;;2603510;54;20065;31
2021/12/19 01:02:09;;;;;;;7.60;3.90;;;5.90;99.90;;;;;;2603658;54;20019;31
2021/12/19 01:04:44;;;;;;;5.13;3.53;;;5.90;99.90;;;;;;2621901;46;20262;31
2021/12/19 01:07:18;;;;;;;5.32;3.58;;;6.00;99.90;;;;;;2612579;54;20030;31
2021/12/19 01:09:52;;;;;;;6.35;4.20;;;6.00;99.90;;;;;;2603714;54;20028;31
2021/12/19 01:12:27;;;;;;;5.85;3.85;;;6.00;99.90;;;;;;2604508;54;20859;31
2021/12/19 01:15:01;;;;;;;6.82;3.92;;;6.00;99.90;;;;;;2603569;54;20018;31
2021/12/19 01:17:36;;;;;;;6.93;4.43;;;6.00;99.90;;;;;;2603323;54;20096;31
2021/12/19 01:20:12;;;;;;;7.00;4.45;;;6.10;99.90;;;;;;2603351;54;20152;31
2021/12/19 01:22:44;;;;;;;7.05;3.70;;;6.00;99.90;;;;;;2622531;46;20027;31
2021/12/19 01:25:16;;;;;;;8.52;3.60;;;6.10;99.90;;;;;;2605366;54;20083;31
2021/12/19 01:27:48;;;;;;;6.85;4.50;;;6.00;99.90;;;;;;2603426;54;20019;31
2021/12/19 01:30:21;;;;;;;8.50;4.55;;;6.10;99.90;;;;;;2603682;54;20033;31
2021/12/19 01:32:59;;;;;;;8.40;4.95;;;6.00;99.90;;;;;;2603416;54;20128;31
2021/12/19 01:35:33;;;;;;;7.10;4.45;;;6.00;99.90;;;;;;2603205;54;20725;31
2021/12/19 01:38:06;;;;;;;7.35;4.55;;;6.10;99.90;;;;;;2622130;46;20054;31
2021/12/19 01:40:38;;;;;;;6.53;4.38;;;6.10;99.90;;;;;;2611617;54;20030;31
2021/12/19 01:43:12;;;;;;;5.75;4.38;;;6.10;99.90;;;;;;2603561;54;20018;31
2021/12/19 01:45:46;;;;;;;8.93;5.40;;;6.10;99.90;;;;;;2619109;46;20019;31
2021/12/19 01:48:21;;;;;;;6.82;5.10;;;6.10;99.90;;;;;;2630420;46;20032;31
2021/12/19 01:50:56;;;;;;;9.27;5.03;;;6.10;99.90;;;;;;2605418;54;20025;31
2021/12/19 01:53:31;;;;;;;9.30;5.72;;;6.10;99.90;;;;;;2605930;54;19957;31
2021/12/19 01:56:05;;;;;;;9.97;6.40;;;6.10;99.90;;;;;;2603306;54;20018;31
2021/12/19 01:58:37;;;;;;;9.55;6.07;;;6.10;99.90;;;;;;2603378;54;20026;31
2021/12/19 02:01:12;;;;;;;12.95;6.45;;;6.10;99.90;;;;;;2603345;54;20033;31
2021/12/19 02:03:47;;;;;;;13.10;7.10;;;6.10;99.90;;;;;;2621798;46;20470;31
2021/12/19 02:06:24;;;;;;;11.60;7.20;;;6.20;99.90;;;;;;2605554;46;20049;31
2021/12/19 02:09:04;;;;;;;11.20;6.60;;;6.20;99.90;;;;;;2603653;54;20022;31
2021/12/19 02:11:38;;;;;;;9.40;5.80;;;6.20;99.90;;;;;;2608200;54;21986;31
2021/12/19 02:14:13;;;;;;;16.08;8.23;;;6.20;99.90;;;;;;2605911;54;20838;-76
2021/12/19 02:16:46;;;;;;;8.85;6.70;;;6.20;99.90;;;;;;2603405;54;20031;31
2021/12/19 02:19:24;;;;;;;9.95;7.60;;;6.20;99.90;;;;;;2607195;54;21361;31
2021/12/19 02:22:01;;;;;;;10.30;6.72;;;6.30;99.90;;;;;;2603212;54;20034;31
2021/12/19 02:24:34;;;;;;;11.00;5.80;;;6.20;99.90;;;;;;2603188;54;20023;31
2021/12/19 02:27:08;;;;;;;8.57;6.47;;;6.30;99.90;;;;;;2603880;47;19938;31
2021/12/19 02:29:43;;;;;;;10.85;7.15;;;6.30;99.90;;;;;;2613557;54;20022;31
2021/12/19 02:32:15;;;;;;;9.90;6.15;;;6.30;99.90;;;;;;2622009;47;20029;31
2021/12/19 02:34:50;;;;;;;12.48;5.88;;;6.30;99.90;;;;;;2605240;54;20041;31
2021/12/19 02:37:55;;;;;;;9.25;5.45;;;6.30;99.90;;;;;;2605799;47;21242;31
2021/12/19 02:40:39;;;;;;;11.93;5.65;;;6.30;99.90;;;;;;2603106;54;20821;31
2021/12/19 02:48:42;;;;;;;8.15;4.72;;;6.40;99.90;;;;;;2606038;54;20014;31
2021/12/19 02:51:16;;;;;;;15.00;6.05;;;6.40;99.90;;;;;;2603660;54;20026;31
2021/12/19 02:53:47;;;;;;;6.57;4.20;;;6.40;99.90;;;;;;2609708;47;20046;31
2021/12/19 02:56:24;;;;;;;11.30;6.15;;;6.40;99.90;;;;;;2611339;54;20019;31
2021/12/19 02:58:58;;;;;;;7.32;5.32;;;6.40;99.90;;;;;;2603212;54;20057;31
2021/12/19 03:01:32;;;;;;;7.60;4.78;;;6.40;99.90;;;;;;2604195;54;20851;31
2021/12/19 03:04:06;;;;;;;7.45;5.15;;;6.40;99.90;;;;;;2606751;54;20022;31
2021/12/19 03:06:39;;;;;;;10.05;5.60;;;6.40;99.90;;;;;;2636724;39;20378;31
2021/12/19 03:09:24;;;;;;;8.98;5.57;;;6.50;99.90;;;;;;2612342;54;20030;31
2021/12/19 03:12:11;;;;;;;7.43;5.22;;;6.50;99.90;;;;;;2612839;54;20019;31
2021/12/19 03:20:15;;;;;;;10.05;5.45;;;6.50;99.90;;;;;;2612891;54;20545;31
2021/12/19 03:22:47;;;;;;;11.67;4.73;;;6.50;99.90;;;;;;2607824;54;20841;31
2021/12/19 03:25:21;;;;;;;8.38;4.75;;;6.50;99.90;;;;;;2603885;54;19970;31
2021/12/19 03:27:58;;;;;;;11.70;4.63;;;6.50;99.90;;;;;;2613161;54;19983;31
2021/12/19 03:30:32;;;;;;;9.20;4.70;;;6.50;99.90;;;;;;2622743;46;20073;31
2021/12/19 03:33:04;;;;;;;10.82;4.97;;;6.50;99.90;;;;;;2615179;39;20801;31
2021/12/19 03:35:38;;;;;;;8.57;4.93;;;6.50;99.90;;;;;;2608213;54;20023;31
2021/12/19 03:38:14;;;;;;;10.93;4.32;;;6.50;99.90;;;;;;2610381;54;20019;31
2021/12/19 03:40:52;;;;;;;11.50;5.30;;;6.50;99.90;;;;;;2608126;54;20026;31
2021/12/19 03:43:31;;;;;;;7.00;3.97;;;6.60;99.90;;;;;;2612666;54;20033;31
2021/12/19 03:46:05;;;;;;;9.25;4.10;;;6.50;99.90;;;;;;2605753;54;20023;31
2021/12/19 03:48:39;;;;;;;11.00;5.05;;;6.60;99.90;;;;;;2603760;54;20033;31
2021/12/19 03:51:13;;;;;;;9.55;3.92;;;6.50;99.90;;;;;;2614559;54;20085;31
2021/12/19 03:53:48;;;;;;;10.25;3.90;;;6.50;99.90;;;;;;2603691;54;20149;31
2021/12/19 03:56:23;;;;;;;11.75;4.50;;;6.50;99.90;;;;;;2603531;54;20844;31
2021/12/19 03:58:58;;;;;;;11.55;4.40;;;6.50;99.90;;;;;;2622418;46;20026;31
2021/12/19 04:01:33;;;;;;;12.40;4.07;;;6.50;99.90;;;;;;2603663;54;20023;31
2021/12/19 04:04:07;;;;;;;10.23;4.20;;;6.50;99.90;;;;;;2603361;54;20045;31
2021/12/19 04:06:39;;;;;;;10.90;4.07;;;6.50;99.90;;;;;;2604554;54;20023;31
2021/12/19 04:09:13;;;;;;;10.20;3.78;;;6.50;99.90;;;;;;2609234;54;20089;31
2021/12/19 04:11:45;;;;;;;10.25;3.58;;;6.50;99.90;;;;;;2604984;54;19938;31
2021/12/19 04:14:20;;;;;;;11.45;4.80;;;6.50;99.90;;;;;;2609043;46;20030;31
2021/12/19 04:16:52;;;;;;;9.13;4.05;;;6.40;99.90;;;;;;2602860;54;20073;31
2021/12/19 04:19:25;;;;;;;11.77;4.13;;;6.40;99.90;;;;;;2603547;54;20022;31
2021/12/19 04:22:02;;;;;;;7.75;3.00;;;6.40;99.90;;;;;;2603656;54;20030;31
2021/12/19 04:24:37;;;;;;;11.32;3.90;;;6.40;99.90;;;;;;2605271;54;20132;31
2021/12/19 04:27:11;;;;;;;9.73;3.70;;;6.40;99.90;;;;;;2605948;54;20018;31
2021/12/19 04:29:49;;;;;;;10.25;4.40;;;6.40;99.90;;;;;;2603801;54;20026;31
2021/12/19 04:32:25;;;;;;;10.52;3.92;;;6.40;99.90;;;;;;2680803;39;20364;31
2021/12/19 04:34:58;;;;;;;9.00;3.80;;;6.40;99.90;;;;;;2603742;54;20078;31
2021/12/19 04:37:59;;;;;;;10.90;4.15;;;6.40;99.90;;;;;;2603735;54;20881;31
2021/12/19 04:40:40;;;;;;;8.98;4.38;;;6.40;99.90;;;;;;2603725;54;20026;31
2021/12/19 04:54:52;;;;;;;7.90;4.20;;;6.30;99.90;;;;;;2603430;54;20885;31
2021/12/19 05:00:14;;;;;;;15.32;4.95;;;6.30;99.90;;;;;;2608381;39;20619;31
2021/12/19 05:02:56;;;;;;;10.52;4.72;;;6.30;99.90;;;;;;2603596;54;20142;31
2021/12/19 05:14:09;;;;;;;12.17;4.80;;;6.30;99.90;;;;;;2603405;54;20023;31
2021/12/19 05:16:45;;;;;;;11.10;3.80;;;6.30;99.90;;;;;;2603284;54;21055;31
2021/12/19 05:19:29;;;;;;;10.35;4.05;;;6.30;99.90;;;;;;2603524;54;20093;31
2021/12/19 05:22:02;;;;;;;7.35;3.75;;;6.40;99.90;;;;;;2603390;54;20271;31
2021/12/19 05:24:49;;;;;;;11.13;4.22;;;6.30;99.90;;;;;;2603467;54;20026;31
2021/12/19 05:27:25;;;;;;;10.45;4.65;;;6.30;99.90;;;;;;2603424;54;20026;31
2021/12/19 05:29:59;;;;;;;11.57;4.22;;;6.30;99.90;;;;;;2603184;54;20060;31
2021/12/19 05:32:31;;;;;;;10.35;4.40;;;6.30;99.90;;;;;;2603512;54;20027;31
2021/12/19 05:35:13;;;;;;;9.63;4.20;;;6.40;99.90;;;;;;2605165;54;20035;31
2021/12/19 05:46:05;;;;;;;11.82;4.60;;;6.40;99.90;;;;;;2604624;54;20102;-77
2021/12/19 05:48:39;;;;;;;8.80;3.65;;;6.40;99.90;;;;;;2603479;54;20026;31
2021/12/19 05:51:14;;;;;;;12.50;3.55;;;6.40;99.90;;;;;;2603402;54;20018;31
2021/12/19 05:53:46;;;;;;;10.80;4.10;;;6.40;99.90;;;;;;2607908;54;20148;31
2021/12/19 05:56:21;;;;;;;7.60;4.13;;;6.40;99.90;;;;;;2603134;54;20863;31
2021/12/19 05:58:53;;;;;;;10.40;4.07;;;6.40;99.90;;;;;;2603454;54;19935;31
2021/12/19 06:01:27;;;;;;;9.93;3.72;;;6.50;99.90;;;;;;2621782;46;20096;31
2021/12/19 06:04:02;;;;;;;8.23;3.50;;;6.50;99.90;;;;;;2605243;54;20018;31
2021/12/19 06:06:40;;;;;;;9.60;2.92;;;6.50;99.90;;;;;;2612474;39;20990;31
2021/12/19 06:09:14;;;;;;;8.20;3.75;;;6.50;99.90;;;;;;2603868;46;20042;31
2021/12/19 06:11:46;;;;;;;7.53;3.35;;;6.50;99.90;;;;;;2603308;54;20057;31
2021/12/19 06:14:22;;;;;;;8.57;3.33;;;6.50;99.90;;;;;;2603466;54;20023;31
2021/12/19 06:16:56;;;;;;;5.60;3.45;;;6.50;99.90;;;;;;2603309;54;20030;31
2021/12/19 06:19:36;;;;;;;6.07;3.13;;;6.50;99.90;;;;;;2609006;54;20021;31
2021/12/19 06:22:11;;;;;;;7.60;2.70;;;6.50;99.90;;;;;;2603370;54;20019;31
2021/12/19 06:24:44;;;;;;;9.83;3.87;;;6.50;99.90;;;;;;2605457;54;20234;31
2021/12/19 06:27:18;;;;;;;9.45;3.75;;;6.50;99.90;;;;;;2602471;54;20033;31
2021/12/19 06:29:52;;;;;;;8.27;4.07;;;6.50;99.90;;;;;;2602571;54;20052;31
2021/12/19 06:32:26;;;;;;;9.00;3.20;;;6.40;99.90;;;;;;2603366;54;20027;31
2021/12/19 06:35:06;;;;;;;9.93;3.17;;;6.40;99.90;;;;;;2603995;54;20821;31
2021/12/19 06:37:41;;;;;;;7.57;3.67;;;6.40;99.90;;;;;;2702341;39;21348;31
2021/12/19 06:40:14;;;;;;;8.85;3.25;;;6.40;99.90;;;;;;2611835;54;20078;31
2021/12/19 06:42:48;;;;;;;10.43;3.20;;;6.40;99.90;;;;;;2610578;39;21010;31
2021/12/19 06:45:20;;;;;;;10.73;4.00;;;6.40;99.90;;;;;;2605879;54;20908;31
2021/12/19 06:47:54;;;;;;;6.82;3.05;;;6.40;99.90;;;;;;2604126;54;20023;31
2021/12/19 06:50:27;;;;;;;7.05;2.90;;;6.40;99.90;;;;;;2604329;54;20026;-76
2021/12/19 06:53:06;;;;;;;7.10;3.15;;;6.30;99.90;;;;;;2603922;54;20030;31
2021/12/19 06:55:42;;;;;;;5.40;2.72;;;6.40;99.90;;;;;;2604190;54;19936;31
2021/12/19 06:58:15;;;;;;;;;;;6.30;99.90;;;;;;2604202;54;20153;31
2021/12/19 07:00:47;;;;;;;7.03;2.53;;;6.30;99.90;;;;;;2603950;54;19985;31
2021/12/19 07:03:23;;;;;;;8.15;2.47;;;6.30;99.90;;;;;;2603872;54;20089;31
2021/12/19 07:05:58;;;;;;;4.97;2.38;;;6.30;99.90;;;;;;2603787;54;20792;31
2021/12/19 07:08:35;;;;;;;9.55;2.55;;;6.30;99.90;;;;;;2611637;54;20081;31
2021/12/19 07:11:09;;;;;;;8.25;2.70;;;6.30;99.90;;;;;;2604444;46;20034;31
2021/12/19 07:13:43;;;;;;;5.97;2.78;;;6.30;99.90;;;;;;2603904;54;20881;31
2021/12/19 07:16:18;;;;;;;7.23;2.77;;;6.30;99.90;;;;;;2604104;54;20019;31
2021/12/19 07:18:52;;;;;;;6.57;2.67;;;6.30;99.90;;;;;;2603930;54;20081;31
2021/12/19 07:21:29;;;;;;;7.40;3.00;;;6.30;99.90;;;;;;2622897;46;20754;31
2021/12/19 07:24:08;;;;;;;4.37;2.40;;;6.30;99.90;;;;;;2604410;54;20128;31
2021/12/19 07:26:42;;;;;;;8.25;2.83;;;6.30;99.90;;;;;;2603827;54;20266;31
2021/12/19 07:29:16;;;;;;;5.55;2.50;;;6.20;99.90;;;;;;2603789;54;20025;31
2021/12/19 07:31:49;;;;;;;5.63;2.43;;;6.20;99.90;;;;;;2604037;39;21743;31
2021/12/19 07:34:31;;;;;;;5.07;2.35;;;6.20;99.90;;;;;;2604449;54;20027;31
2021/12/19 07:37:06;;;;;;;8.70;3.30;;;6.20;99.90;;;;;;2603636;54;20089;31
2021/12/19 07:39:53;;;;;;;7.95;3.25;;;6.20;99.90;;;;;;2603815;54;20085;31
2021/12/19 07:42:25;;;;;;;5.60;2.65;;;6.20;99.90;;;;;;2702143;39;21363;31
2021/12/19 07:44:57;;;;;;;8.90;3.00;;;6.20;99.90;;;;;;2603446;54;20820;31
2021/12/19 07:47:32;;;;;;;4.80;2.47;;;6.20;99.90;;;;;;2622576;46;20270;31
2021/12/19 07:50:04;;;;;;;7.13;3.13;;;6.20;99.90;;;;;;2603686;54;20964;31
2021/12/19 07:52:36;;;;;;;5.80;2.17;;;6.20;99.90;;;;;;2603794;54;20879;31
2021/12/19 07:55:14;;;;;;;4.57;2.53;;;6.20;99.90;;;;;;2603759;54;19954;31
2021/12/19 07:57:48;;;;;;;5.63;2.50;;;6.20;99.90;;;;;;2604574;46;20027;31
2021/12/19 08:00:26;;;;;;;5.37;2.50;;;6.20;99.90;;;;;;2603587;54;20921;31
2021/12/19 08:03:00;;;;;;;7.47;3.67;;;6.20;99.90;;;;;;2603794;54;21100;31
2021/12/19 08:05:33;;;;;;;5.80;2.40;;;6.20;99.90;;;;;;2603509;54;20577;31
2021/12/19 08:08:10;;;;;;;7.05;2.75;;;6.20;99.90;;;;;;2603731;54;20136;31
2021/12/19 08:13:32;;;;;;;5.93;2.88;;;6.30;99.90;;;;;;2604379;46;20042;31
2021/12/19 08:16:15;;;;;;;4.13;2.55;;;6.20;99.90;;;;;;2602961;54;20038;31
2021/12/19 08:18:51;;;;;;;4.88;2.60;;;6.20;99.90;;;;;;2602738;54;20878;31
2021/12/19 08:21:25;;;;;;;7.10;2.67;;;6.20;99.90;;;;;;2603509;54;20155;31
2021/12/19 08:24:01;;;;;;;7.10;2.55;;;6.20;99.90;;;;;;2603513;54;20026;31
2021/12/19 08:26:38;;;;;;;5.20;2.47;;;6.20;99.90;;;;;;2612292;39;20946;31
2021/12/19 08:29:15;;;;;;;4.68;2.80;;;6.20;99.90;;;;;;2603653;54;21737;31
2021/12/19 08:31:48;;;;;;;5.65;2.80;;;6.20;99.90;;;;;;2603505;54;20859;31
2021/12/19 08:34:24;;;;;;;6.05;3.03;;;6.20;99.90;;;;;;2624107;46;20035;31
2021/12/19 08:37:02;;;;;;;6.05;2.85;;;6.20;99.90;;;;;;2609841;54;20229;-77
2021/12/19 08:39:38;;;;;;;6.80;2.95;;;6.20;99.90;;;;;;2603752;54;20919;31
2021/12/19 08:42:15;;;;;;;4.63;2.50;;;6.20;99.90;;;;;;2604529;54;20027;31
2021/12/19 08:44:50;;;;;;;8.07;3.08;;;6.20;99.90;;;;;;2604672;54;20026;31
2021/12/19 08:47:22;;;;;;;4.78;2.13;;;6.10;99.90;;;;;;2612004;46;20022;31
2021/12/19 08:50:00;;;;;;;6.25;2.90;;;6.20;99.90;;;;;;2613060;54;20034;31
2021/12/19 08:52:33;;;;;;;8.05;2.45;;;6.20;99.90;;;;;;2605450;46;20089;31
2021/12/19 08:55:08;;;;;;;5.68;2.33;;;6.20;99.90;;;;;;2603810;47;20873;31
2021/12/19 08:57:49;;;;;;;9.15;2.95;;;6.20;99.90;;;;;;2603483;54;20026;31
2021/12/19 09:00:22;;;;;;;3.47;2.03;;;6.20;99.90;;;;;;2603681;54;20187;31
2021/12/19 09:02:56;;;;;;;4.47;2.33;;;6.10;99.90;;;;;;2603667;54;20025;31
2021/12/19 09:05:30;;;;;;;5.03;3.00;;;6.20;99.90;;;;;;2603354;54;20899;31
2021/12/19 09:08:05;;;;;;;7.50;2.70;;;6.10;99.90;;;;;;2603580;54;20033;31
2021/12/19 09:10:39;;;;;;;7.60;3.10;;;6.10;99.90;;;;;;2603604;54;20050;31
2021/12/19 09:13:15;;;;;;;4.38;2.25;;;6.10;99.90;;;;;;2603585;54;20034;31
2021/12/19 09:15:53;;;;;;;4.93;2.40;;;6.10;99.90;;;;;;2605610;54;20033;31
2021/12/19 09:18:28;;;;;;;3.00;2.25;;;6.00;99.90;;;;;;2603592;54;20038;31
2021/12/19 09:21:02;;;;;;;5.72;1.80;;;6.00;99.90;;;;;;2603359;54;20031;31
2021/12/19 09:23:38;;;;;;;2.65;1.92;;;6.00;99.90;;;;;;2603382;54;20027;31
2021/12/19 09:26:16;;;;;;;3.65;1.63;;;6.00;99.90;;;;;;2603192;54;20855;31
2021/12/19 09:28:53;;;;;;;3.37;1.70;;;5.90;99.90;;;;;;2603436;54;20027;31
2021/12/19 09:31:29;;;;;;;3.57;1.27;;;6.00;99.90;;;;;;2603285;54;21183;31
2021/12/19 09:34:03;;;;;;;5.03;1.80;;;5.90;99.90;;;;;;2606644;54;20262;31
2021/12/19 09:36:37;;;;;;;4.68;1.52;;;5.90;99.90;;;;;;2609801;54;20067;31
2021/12/19 09:39:17;;;;;;;3.38;1.58;;;5.90;99.90;;;;;;2604282;46;20101;31
2021/12/19 09:41:54;;;;;;;3.75;1.40;;;5.90;99.90;;;;;;2603187;54;20029;31
2021/12/19 09:44:30;;;;;;;4.27;1.50;;;6.00;99.90;;;;;;2609638;39;20992;31
2021/12/19 09:47:04;;;;;;;2.00;1.50;;;6.00;99.90;;;;;;2606359;46;20033;31
2021/12/19 09:49:39;;;;;;;3.70;1.55;;;6.00;99.90;;;;;;2603391;54;20026;31
2021/12/19 09:52:16;;;;;;;2.47;1.15;;;6.00;99.90;;;;;;2603380;54;20038;31
2021/12/19 09:54:50;;;;;;;1.88;1.00;;;6.10;99.90;;;;;;2621865;46;20026;31
2021/12/19 09:57:26;;;;;;;1.83;0.80;;;6.10;99.90;;;;;;2621626;46;20050;31
2021/12/19 10:00:03;;;;;;;5.00;1.10;;;6.10;99.90;;;;;;2603348;54;20817;31
2021/12/19 10:02:44;;;;;;;3.90;0.80;;;6.20;99.90;;;;;;2609611;39;21130;31
2021/12/19 10:05:22;;;;;;;2.80;0.70;;;6.20;99.90;;;;;;2609567;46;20895;31
2021/12/19 10:07:55;;;;;;;2.33;1.02;;;6.20;99.90;;;;;;2603247;54;20056;31
2021/12/19 10:10:43;;;;;;;4.78;1.08;;;6.20;99.90;;;;;;2608735;54;20062;31
2021/12/19 10:13:15;;;;;;;2.85;1.13;;;6.20;99.90;;;;;;2609953;54;20030;31
2021/12/19 10:15:58;;;;;;;2.30;1.10;;;6.20;99.90;;;;;;2613614;54;20023;31
2021/12/19 10:18:33;;;;;;;3.80;1.63;;;6.20;99.90;;;;;;2608432;54;20881;31
2021/12/19 10:21:05;;;;;;;3.80;1.83;;;6.20;99.90;;;;;;2604692;54;20054;31
2021/12/19 10:23:38;;;;;;;7.07;3.60;;;6.30;99.90;;;;;;2603238;54;20089;31
2021/12/19 10:26:15;;;;;;;4.10;2.10;;;6.20;99.90;;;;;;2603064;54;20257;31
2021/12/19 10:28:54;;;;;;;;;;;6.20;99.90;;;;;;2604644;54;20029;31
2021/12/19 10:31:32;;;;;;;3.97;1.23;;;6.10;99.90;;;;;;2604143;54;19956;31
2021/12/19 10:34:33;;;;;;;2.50;1.13;;;6.10;99.90;;;;;;2602984;54;20238;31
2021/12/19 10:37:34;;;;;;;2.28;1.52;;;6.10;99.90;;;;;;2605657;54;20101;31
2021/12/19 10:40:15;;;;;;;2.30;1.40;;;6.20;99.90;;;;;;2603402;54;20023;31
2021/12/19 10:42:53;;;;;;;3.92;1.17;;;6.10;99.90;;;;;;2603108;54;20026;31
2021/12/19 10:45:36;;;;;;;2.60;1.20;;;6.10;99.90;;;;;;2603010;54;20027;31
2021/12/19 10:48:16;;;;;;;3.58;1.50;;;6.10;99.90;;;;;;2630163;47;20018;31
2021/12/19 10:50:52;;;;;;;3.55;1.40;;;6.10;99.90;;;;;;2603327;54;19938;-77
2021/12/19 10:53:28;;;;;;;3.97;1.60;;;6.00;99.90;;;;;;2603055;54;20045;31
2021/12/19 10:56:09;;;;;;;3.75;1.80;;;6.00;99.90;;;;;;2603122;54;20035;31
2021/12/19 10:58:47;;;;;;;2.95;1.73;;;6.00;99.90;;;;;;2602806;54;20037;31
2021/12/19 11:01:26;;;;;;;2.60;1.30;;;6.00;99.90;;;;;;2603014;54;20053;31
2021/12/19 11:04:05;;;;;;;2.45;1.50;;;6.00;99.90;;;;;;2603002;54;20018;31
2021/12/19 11:06:48;;;;;;;3.63;2.17;;;6.10;99.90;;;;;;2602952;54;20046;31
2021/12/19 11:09:24;;;;;;;4.05;2.20;;;6.10;99.90;;;;;;2602964;54;20053;31
2021/12/19 11:11:57;;;;;;;4.38;1.80;;;6.00;99.90;;;;;;2603095;54;20026;31
2021/12/19 11:14:33;;;;;;;3.85;1.65;;;6.00;99.90;;;;;;2603067;54;20028;31
2021/12/19 11:17:07;;;;;;;2.47;1.83;;;6.10;99.90;;;;;;2602982;54;20105;31
2021/12/19 11:19:45;;;;;;;3.10;1.63;;;6.00;99.90;;;;;;2603222;54;20316;31
2021/12/19 11:22:26;;;;;;;3.38;1.42;;;5.90;99.90;;;;;;2622612;46;20903;31
2021/12/19 11:25:01;;;;;;;3.15;1.50;;;6.00;99.90;;;;;;2603720;54;20030;31
2021/12/19 11:27:35;;;;;;;5.70;1.20;;;6.00;99.90;;;;;;2604120;46;20145;31
2021/12/19 11:30:15;;;;;;;3.15;1.20;;;5.90;99.90;;;;;;2603843;54;21108;31
2021/12/19 11:33:09;;;;;;;3.90;2.40;;;6.00;99.90;;;;;;2603860;54;20034;31
2021/12/19 11:35:50;;;;;;;2.55;1.00;;;6.00;99.90;;;;;;2603848;54;20823;31
2021/12/19 11:38:24;;;;;;;2.03;1.08;;;5.90;99.90;;;;;;2603011;54;20053;31
2021/12/19 11:40:59;;;;;;;3.33;1.17;;;6.00;99.90;;;;;;2603901;54;20022;31
2021/12/19 11:43:38;;;;;;;1.95;1.05;;;6.00;99.90;;;;;;2603817;54;20068;31
2021/12/19 11:46:19;;;;;;;1.45;0.70;;;6.00;99.90;;;;;;2603628;54;20116;31
2021/12/19 11:49:20;;;;;;;4.28;0.93;;;6.10;99.90;;;;;;2603749;54;20094;31
2021/12/19 11:52:24;;;;;;;3.53;1.08;;;6.10;99.90;;;;;;2603695;54;20823;31
2021/12/19 11:55:22;;;;;;;2.60;0.75;;;6.20;99.90;;;;;;2603602;54;20853;31
2021/12/19 11:58:22;;;;;;;2.65;1.08;;;6.30;99.90;;;;;;2604009;54;20072;31
2021/12/19 12:00:58;;;;;;;3.50;1.30;;;6.40;99.90;;;;;;2603779;54;20911;31
2021/12/19 12:03:35;;;;;;;6.38;1.35;;;6.40;99.90;;;;;;2603608;54;20023;31
2021/12/19 12:06:32;;;;;;;;;;;6.40;99.90;;;;;;2603937;54;20863;31
2021/12/19 12:09:40;;;;;;;4.70;1.50;;;6.30;99.90;;;;;;2603466;54;20695;31
2021/12/19 12:12:34;;;;;;;3.78;1.50;;;6.30;99.90;;;;;;2603369;54;20057;31
2021/12/19 12:15:09;;;;;;;3.75;1.40;;;6.30;99.90;;;;;;2603807;54;20049;31
2021/12/19 12:17:50;;;;;;;3.08;1.40;;;6.30;99.90;;;;;;2603672;54;20030;31
2021/12/19 12:20:24;;;;;;;2.70;1.00;;;6.30;99.90;;;;;;2721188;39;22218;31
2021/12/19 12:23:03;;;;;;;1.33;0.53;;;6.30;99.90;;;;;;2603642;54;20904;31
2021/12/19 12:25:43;;;;;;;4.60;1.00;;;6.30;99.90;;;;;;2603753;54;20839;31
2021/12/19 12:28:21;;;;;;;1.95;0.80;;;6.30;99.90;;;;;;2603804;54;20026;31
2021/12/19 12:30:59;;;;;;;3.25;0.70;;;6.40;99.90;;;;;;2603517;54;20050;31
2021/12/19 12:33:37;;;;;;;3.58;0.70;;;6.30;99.90;;;;;;2603727;54;21126;31
2021/12/19 12:36:12;;;;;;;2.50;0.75;;;6.30;99.90;;;;;;2603597;54;20022;31
2021/12/19 12:38:50;;;;;;;1.67;0.73;;;6.20;99.90;;;;;;2613040;46;20290;31
2021/12/19 12:41:40;;;;;;;2.40;0.60;;;6.30;99.90;;;;;;2603544;54;20046;31
2021/12/19 12:44:15;;;;;;;4.55;0.85;;;6.30;99.90;;;;;;2603706;54;20030;31
2021/12/19 12:46:49;;;;;;;1.67;0.80;;;6.30;99.90;;;;;;2603703;54;20033;31
2021/12/19 12:49:26;;;;;;;2.10;0.80;;;6.20;99.90;;;;;;2603143;54;20030;31
2021/12/19 12:52:04;;;;;;;2.38;0.60;;;6.20;99.90;;;;;;2622353;46;20132;31
2021/12/19 12:54:41;;;;;;;2.20;0.60;;;6.20;99.90;;;;;;2603314;54;20169;31
2021/12/19 12:57:18;;;;;;;1.00;0.57;;;6.10;99.90;;;;;;2603713;54;20048;31
2021/12/19 12:59:52;;;;;;;1.70;0.70;;;6.10;99.90;;;;;;2613273;46;20023;31
2021/12/19 13:02:31;;;;;;;1.83;0.80;;;6.10;99.90;;;;;;2603621;54;20061;31
2021/12/19 13:05:11;;;;;;;4.65;1.00;;;6.10;99.90;;;;;;2608588;46;20863;31
2021/12/19 13:07:46;;;;;;;2.65;0.50;;;6.10;99.90;;;;;;2603377;54;20911;31
2021/12/19 13:10:20;;;;;;;2.55;1.15;;;6.10;99.90;;;;;;2603345;54;20058;31
2021/12/19 13:12:58;;;;;;;1.27;0.80;;;6.10;99.90;;;;;;2603517;54;20053;31
2021/12/19 13:15:33;;;;;;;2.35;1.20;;;6.20;99.90;;;;;;2609865;39;21023;31
2021/12/19 13:18:07;;;;;;;2.60;1.25;;;6.20;99.90;;;;;;2603487;54;20124;31
2021/12/19 13:20:41;;;;;;;1.55;0.85;;;6.10;99.90;;;;;;2603249;54;20042;31
2021/12/19 13:23:15;;;;;;;1.45;0.70;;;6.10;99.90;;;;;;2603371;54;20029;31
2021/12/19 13:25:49;;;;;;;1.55;0.82;;;6.10;99.90;;;;;;2603564;54;20827;31
2021/12/19 13:28:26;;;;;;;3.35;0.80;;;6.00;99.90;;;;;;2603365;54;20926;31
2021/12/19 13:31:02;;;;;;;2.33;0.70;;;6.10;99.90;;;;;;2603462;54;20857;31
2021/12/19 13:33:40;;;;;;;;;;;6.10;99.90;;;;;;2603744;54;20026;31
2021/12/19 13:36:17;;;;;;;22.67;1.90;;;6.10;99.90;;;;;;2603259;54;19934;31
2021/12/19 13:38:59;;;;;;;4.13;0.50;;;6.10;99.90;;;;;;2603362;54;20030;31
2021/12/19 13:41:37;;;;;;;1.15;0.50;;;6.00;99.90;;;;;;2603277;54;20846;31
2021/12/19 13:44:16;;;;;;;5.10;0.47;;;6.00;99.90;;;;;;2603325;54;20053;31
2021/12/19 13:46:51;;;;;;;5.65;0.88;;;6.00;99.90;;;;;;2602549;54;20057;31
2021/12/19 13:49:27;;;;;;;3.60;0.68;;;6.00;99.90;;;;;;2702071;39;20906;31
2021/12/19 13:52:08;;;;;;;4.22;0.70;;;5.90;99.90;;;;;;2603490;54;20089;31
2021/12/19 13:54:43;;;;;;;1.15;0.70;;;6.00;99.90;;;;;;2603367;54;20880;31
2021/12/19 13:57:22;;;;;;;1.70;0.93;;;6.00;99.90;;;;;;2603432;54;20896;31
2021/12/19 14:00:01;;;;;;;2.95;0.85;;;5.90;99.90;;;;;;2603281;54;20057;31
2021/12/19 14:02:42;;;;;;;2.40;1.30;;;5.90;99.90;;;;;;2701919;39;21007;31
2021/12/19 14:05:32;;;;;;;2.53;1.05;;;5.90;99.90;;;;;;2607777;54;20052;31
2021/12/19 14:08:28;;;;;;;2.35;0.90;;;5.80;99.90;;;;;;2607609;54;20027;31
2021/12/19 14:11:16;;;;;;;1.65;0.88;;;5.80;99.90;;;;;;2603195;54;20782;31
2021/12/19 14:14:04;;;;;;;3.25;0.80;;;5.80;99.90;;;;;;2603192;54;20030;31
2021/12/19 14:17:04;;;;;;;2.45;0.80;;;5.80;99.90;;;;;;2603329;54;20042;31
2021/12/19 14:19:40;;;;;;;1.58;0.70;;;5.70;99.90;;;;;;2603130;54;20038;31
2021/12/19 14:22:15;;;;;;;1.40;0.60;;;5.70;99.90;;;;;;2603504;54;20963;31
2021/12/19 14:24:49;;;;;;;0.90;0.40;;;5.70;99.90;;;;;;2603249;54;20238;31
2021/12/19 14:27:25;;;;;;;1.25;0.40;;;5.60;99.90;;;;;;2603192;54;20050;31
2021/12/19 14:30:03;;;;;;;1.50;0.50;;;5.60;99.90;;;;;;2617276;47;20129;31
2021/12/19 14:32:48;;;;;;;2.75;0.70;;;5.60;99.90;;;;;;2603112;54;20022;31
2021/12/19 14:35:23;;;;;;;1.60;0.82;;;5.70;99.90;;;;;;2603206;54;20108;31
2021/12/19 14:38:02;;;;;;;2.00;1.10;;;5.70;99.90;;;;;;2603241;54;20720;31
2021/12/19 14:49:13;;;;;;;3.90;0.80;;;5.90;99.90;;;;;;2638766;38;20588;31
2021/12/19 14:52:00;;;;;;;2.63;0.57;;;5.90;99.90;;;;;;2607651;54;20034;31
2021/12/19 14:54:35;;;;;;;1.53;0.50;;;5.80;99.90;;;;;;2608180;46;21301;31
2021/12/19 14:57:09;;;;;;;2.63;0.80;;;5.70;99.90;;;;;;2607486;54;20250;31